PWSweather.com
Personal Weather Stations
Station Observations
KV9EWX
Winnebago, Il, Winnebago, IL 61088

Winnebago, IlWinnebago, IL 61088

Lat: 42.261175, Lon: -89.236369

Elevation: 892

Station Type: Lacrosse ws-2811

Latest ConditionsUpdated 4:01:53 AM CDT Tuesday, Sep 2, 2014
Currently Today's Max Today's Min Today's Average
Temperature 59.4°F15.2°C 64.4°F18.0°C 59.4°F15.2°C 61.7°F16.5°C
Dew Point 57.0°F13.9°C 61.7°F16.5°C 57.0°F13.9°C 59.0°F15.0°C
Winds Calm Calm 1.8 mph S2.9 kmh S - 0.2 mph 0.3 kmh
Wind Gusts 0.3 mph0.5 kmh 3.1 mph5.0 kmh - -
Humidity 92% 92% 90% 91%
Pressure 29.49 in998.6 mb 29.49 in998.6 mb 29.46 in997.6 mb -
Hour Temp Dew Point Humidity Winds Wind Gusts Pressure Precip Precip Rate Daily Precip Total
04:01 AM 59.4°F15.2°C 57.0°F13.9°C 92% Calm Calm 0.3 mph0.5 kmh 29.49 in998.6 mb 0.00 in0.0 mm 0.00 in/hr0.0 mm/hr 0.00 in0.0 mm
03:56 AM 59.4°F15.2°C 57.0°F13.9°C 92% 0.3 mph SW0.5 kmh SW 0.3 mph0.5 kmh 29.49 in998.6 mb 0.00 in0.0 mm 0.00 in/hr0.0 mm/hr 0.00 in0.0 mm
03:51 AM 59.4°F15.2°C 57.0°F13.9°C 92% Calm Calm -- 29.49 in998.6 mb 0.00 in0.0 mm 0.00 in/hr0.0 mm/hr 0.00 in0.0 mm
03:46 AM 59.6°F15.3°C 57.2°F14.0°C 92% Calm Calm -- 29.49 in998.6 mb 0.00 in0.0 mm 0.00 in/hr0.0 mm/hr 0.00 in0.0 mm
03:41 AM 59.8°F15.4°C 57.4°F14.1°C 92% Calm Calm -- 29.49 in998.6 mb 0.00 in0.0 mm 0.00 in/hr0.0 mm/hr 0.00 in0.0 mm
03:36 AM 59.8°F15.4°C 57.4°F14.1°C 92% Calm Calm -- 29.48 in998.3 mb 0.00 in0.0 mm 0.00 in/hr0.0 mm/hr 0.00 in0.0 mm
03:31 AM 59.8°F15.4°C 57.4°F14.1°C 92% Calm Calm -- 29.48 in998.3 mb 0.00 in0.0 mm 0.00 in/hr0.0 mm/hr 0.00 in0.0 mm
03:26 AM 59.8°F15.4°C 57.5°F14.2°C 92% Calm Calm -- 29.48 in998.3 mb 0.00 in0.0 mm 0.00 in/hr0.0 mm/hr 0.00 in0.0 mm
03:21 AM 60.0°F15.6°C 57.7°F14.3°C 92% Calm Calm -- 29.48 in998.3 mb 0.00 in0.0 mm 0.00 in/hr0.0 mm/hr 0.00 in0.0 mm
03:16 AM 60.0°F15.6°C 57.7°F14.3°C 92% Calm Calm -- 29.48 in998.3 mb 0.00 in0.0 mm 0.00 in/hr0.0 mm/hr 0.00 in0.0 mm
03:11 AM 60.2°F15.7°C 57.9°F14.4°C 92% Calm Calm -- 29.48 in998.3 mb 0.00 in0.0 mm 0.00 in/hr0.0 mm/hr 0.00 in0.0 mm
03:06 AM 60.2°F15.7°C 57.9°F14.4°C 92% Calm Calm -- 29.48 in998.3 mb 0.00 in0.0 mm 0.00 in/hr0.0 mm/hr 0.00 in0.0 mm
03:01 AM 60.4°F15.8°C 58.1°F14.5°C 92% Calm Calm 0.3 mph0.5 kmh 29.48 in998.3 mb 0.00 in0.0 mm 0.00 in/hr0.0 mm/hr 0.00 in0.0 mm
02:56 AM 60.4°F15.8°C 58.1°F14.5°C 92% Calm Calm 0.7 mph1.1 kmh 29.48 in998.3 mb 0.00 in0.0 mm 0.00 in/hr0.0 mm/hr 0.00 in0.0 mm
02:51 AM 60.4°F15.8°C 58.1°F14.5°C 92% 0.5 mph SW0.8 kmh SW 0.7 mph1.1 kmh 29.48 in998.3 mb 0.00 in0.0 mm 0.00 in/hr0.0 mm/hr 0.00 in0.0 mm
02:46 AM 60.6°F15.9°C 58.3°F14.6°C 92% Calm Calm -- 29.48 in998.3 mb 0.00 in0.0 mm 0.00 in/hr0.0 mm/hr 0.00 in0.0 mm
02:41 AM 60.7°F15.9°C 58.3°F14.6°C 92% Calm Calm 0.7 mph1.1 kmh 29.48 in998.3 mb 0.00 in0.0 mm 0.00 in/hr0.0 mm/hr 0.00 in0.0 mm
02:36 AM 60.7°F15.9°C 58.3°F14.6°C 92% 0.4 mph SW0.6 kmh SW 0.7 mph1.1 kmh 29.48 in998.3 mb 0.00 in0.0 mm 0.00 in/hr0.0 mm/hr 0.00 in0.0 mm
02:31 AM 60.7°F15.9°C 58.3°F14.6°C 92% 0.3 mph SSW0.5 kmh SSW 1.6 mph2.6 kmh 29.48 in998.3 mb 0.00 in0.0 mm 0.00 in/hr0.0 mm/hr 0.00 in0.0 mm
02:26 AM 60.9°F16.1°C 58.2°F14.6°C 91% 0.7 mph SSW1.1 kmh SSW 1.6 mph2.6 kmh 29.48 in998.3 mb 0.00 in0.0 mm 0.00 in/hr0.0 mm/hr 0.00 in0.0 mm
02:21 AM 60.9°F16.1°C 58.2°F14.6°C 91% 0.9 mph SSW1.4 kmh SSW 1.6 mph2.6 kmh 29.48 in998.3 mb 0.00 in0.0 mm 0.00 in/hr0.0 mm/hr 0.00 in0.0 mm
02:16 AM 60.9°F16.1°C 58.2°F14.6°C 91% 0.5 mph SSW0.8 kmh SSW 0.7 mph1.1 kmh 29.48 in998.3 mb 0.00 in0.0 mm 0.00 in/hr0.0 mm/hr 0.00 in0.0 mm
02:11 AM 61.1°F16.2°C 58.4°F14.7°C 91% Calm Calm -- 29.48 in998.3 mb 0.00 in0.0 mm 0.00 in/hr0.0 mm/hr 0.00 in0.0 mm
02:06 AM 61.1°F16.2°C 58.4°F14.7°C 91% Calm Calm -- 29.48 in998.3 mb 0.00 in0.0 mm 0.00 in/hr0.0 mm/hr 0.00 in0.0 mm
02:01 AM 61.1°F16.2°C 58.4°F14.7°C 91% Calm Calm -- 29.47 in998.0 mb 0.00 in0.0 mm 0.00 in/hr0.0 mm/hr 0.00 in0.0 mm
01:56 AM 61.5°F16.4°C 58.8°F14.9°C 91% Calm Calm -- 29.47 in998.0 mb 0.00 in0.0 mm 0.00 in/hr0.0 mm/hr 0.00 in0.0 mm
01:51 AM 61.5°F16.4°C 58.8°F14.9°C 91% Calm Calm -- 29.47 in998.0 mb 0.00 in0.0 mm 0.00 in/hr0.0 mm/hr 0.00 in0.0 mm
01:46 AM 61.6°F16.4°C 58.9°F14.9°C 91% Calm Calm -- 29.47 in998.0 mb 0.00 in0.0 mm 0.00 in/hr0.0 mm/hr 0.00 in0.0 mm
01:41 AM 61.8°F16.6°C 59.1°F15.1°C 91% Calm Calm -- 29.47 in998.0 mb 0.00 in0.0 mm 0.00 in/hr0.0 mm/hr 0.00 in0.0 mm
01:36 AM 61.8°F16.6°C 59.1°F15.1°C 91% Calm Calm -- 29.46 in997.6 mb 0.00 in0.0 mm 0.00 in/hr0.0 mm/hr 0.00 in0.0 mm
01:31 AM 62.2°F16.8°C 59.5°F15.3°C 91% Calm Calm -- 29.46 in997.6 mb 0.00 in0.0 mm 0.00 in/hr0.0 mm/hr 0.00 in0.0 mm
01:26 AM 62.4°F16.9°C 59.4°F15.2°C 90% Calm Calm -- 29.46 in997.6 mb 0.00 in0.0 mm 0.00 in/hr0.0 mm/hr 0.00 in0.0 mm
01:21 AM 62.5°F16.9°C 59.5°F15.3°C 90% Calm Calm -- 29.47 in998.0 mb 0.00 in0.0 mm 0.00 in/hr0.0 mm/hr 0.00 in0.0 mm
01:16 AM 62.7°F17.1°C 59.7°F15.4°C 90% Calm Calm 1.2 mph1.9 kmh 29.47 in998.0 mb 0.00 in0.0 mm 0.00 in/hr0.0 mm/hr 0.00 in0.0 mm
01:09 AM 62.9°F17.2°C 59.9°F15.5°C 90% 0.6 mph SSW1.0 kmh SSW 1.2 mph1.9 kmh 29.47 in998.0 mb 0.00 in0.0 mm 0.00 in/hr0.0 mm/hr 0.00 in0.0 mm
01:04 AM 63.2°F17.3°C 60.2°F15.7°C 90% Calm Calm -- 29.47 in998.0 mb 0.00 in0.0 mm 0.00 in/hr0.0 mm/hr 0.00 in0.0 mm
12:59 AM 63.3°F17.4°C 60.3°F15.7°C 90% Calm Calm -- 29.47 in998.0 mb 0.00 in0.0 mm 0.00 in/hr0.0 mm/hr 0.00 in0.0 mm
12:54 AM 63.5°F17.5°C 60.5°F15.8°C 90% Calm Calm -- 29.47 in998.0 mb 0.00 in0.0 mm 0.00 in/hr0.0 mm/hr 0.00 in0.0 mm
12:49 AM 63.7°F17.6°C 61.0°F16.1°C 91% Calm Calm 2.3 mph3.7 kmh 29.46 in997.6 mb 0.00 in0.0 mm 0.00 in/hr0.0 mm/hr 0.00 in0.0 mm
12:44 AM 63.9°F17.7°C 61.2°F16.2°C 91% 0.6 mph SSW1.0 kmh SSW 3.1 mph5.0 kmh 29.46 in997.6 mb 0.00 in0.0 mm 0.00 in/hr0.0 mm/hr 0.00 in0.0 mm
12:39 AM 64.1°F17.8°C 61.4°F16.3°C 91% 1.8 mph S2.9 kmh S 3.1 mph5.0 kmh 29.48 in998.3 mb 0.00 in0.0 mm 0.00 in/hr0.0 mm/hr 0.00 in0.0 mm
12:34 AM 64.1°F17.8°C 61.4°F16.3°C 91% 0.5 mph SSW0.8 kmh SSW 1.6 mph2.6 kmh 29.48 in998.3 mb 0.00 in0.0 mm 0.00 in/hr0.0 mm/hr 0.00 in0.0 mm
12:29 AM 64.2°F17.9°C 61.5°F16.4°C 91% 0.3 mph SSW0.5 kmh SSW 0.7 mph1.1 kmh 29.47 in998.0 mb 0.00 in0.0 mm 0.00 in/hr0.0 mm/hr 0.00 in0.0 mm
12:24 AM 64.2°F17.9°C 61.5°F16.4°C 91% Calm Calm 1.2 mph1.9 kmh 29.46 in997.6 mb 0.00 in0.0 mm 0.00 in/hr0.0 mm/hr 0.00 in0.0 mm
12:19 AM 64.2°F17.9°C 61.5°F16.4°C 91% 0.5 mph SSW0.8 kmh SSW 1.9 mph3.1 kmh 29.46 in997.6 mb 0.00 in0.0 mm 0.00 in/hr0.0 mm/hr 0.00 in0.0 mm
12:14 AM 64.2°F17.9°C 61.5°F16.4°C 91% 0.4 mph SSW0.6 kmh SSW 1.9 mph3.1 kmh 29.47 in998.0 mb 0.00 in0.0 mm 0.00 in/hr0.0 mm/hr 0.00 in0.0 mm
12:09 AM 64.2°F17.9°C 61.5°F16.4°C 91% 1.4 mph SSW2.3 kmh SSW 1.9 mph3.1 kmh 29.47 in998.0 mb 0.00 in0.0 mm 0.00 in/hr0.0 mm/hr 0.00 in0.0 mm
12:04 AM 64.4°F18.0°C 61.7°F16.5°C 91% Calm Calm 1.6 mph2.6 kmh 29.48 in998.3 mb 0.00 in0.0 mm 0.00 in/hr0.0 mm/hr 0.00 in0.0 mm